Time;durP1;ratioP1;P1;durP2;ratioP2;P2;SDS_P1;SDS_P2;PMS_P1;PMS_P2;Temp;Humidity;BMP_temperature;BMP_pressure;BME280_temperature;BME280_humidity;BME280_pressure;Samples;Min_cycle;Max_cycle;Signal;HPM_P1;HPM_P2
2023/05/16 00:01:07;;;;;;;18.33;8.65;;;;;;;;;;5039325;28;20033;-66
2023/05/16 00:03:33;;;;;;;24.40;9.90;;;;;;;;;;5038529;28;20077;-68
2023/05/16 00:05:58;;;;;;;19.13;9.52;;;;;;;;;;5037731;28;20067;-68
2023/05/16 00:08:23;;;;;;;17.35;9.48;;;;;;;;;;5037607;28;20519;-68
2023/05/16 00:10:49;;;;;;;21.35;9.27;;;;;;;;;;5036219;28;20193;-68
2023/05/16 00:13:14;;;;;;;23.50;10.13;;;;;;;;;;5038495;28;20032;-68
2023/05/16 00:15:39;;;;;;;15.27;9.10;;;;;;;;;;5036328;28;20067;-65
2023/05/16 00:18:05;;;;;;;21.63;9.73;;;;;;;;;;5039649;28;20118;-68
2023/05/16 00:20:30;;;;;;;18.20;8.82;;;;;;;;;;5037901;28;20039;-68
2023/05/16 00:22:59;;;;;;;24.73;9.00;;;;;;;;;;5038859;28;20062;-65
2023/05/16 00:25:25;;;;;;;24.85;9.30;;;;;;;;;;5036320;28;20036;-68
2023/05/16 00:27:50;;;;;;;18.77;8.98;;;;;;;;;;5035457;28;20055;-68
2023/05/16 00:30:15;;;;;;;14.50;8.30;;;;;;;;;;5039312;28;20083;-69
2023/05/16 00:32:41;;;;;;;15.07;8.15;;;;;;;14.02;nan;99900.38;5036842;28;20823;-69
2023/05/16 00:35:09;;;;;;;15.43;7.45;;;;;;;;;;5042796;28;20041;-69
2023/05/16 00:37:34;;;;;;;15.93;7.60;;;;;;;;;;5035293;28;20627;-65
2023/05/16 00:40:00;;;;;;;14.50;7.43;;;;;;;;;;5035404;28;20095;-65
2023/05/16 00:42:26;;;;;;;16.17;7.50;;;;;;;;;;5034254;28;20098;-68
2023/05/16 00:44:51;;;;;;;13.40;7.68;;;;;;;;;;5035183;28;20620;-68
2023/05/16 00:47:16;;;;;;;18.20;8.20;;;;;;;;;;5036986;28;20068;-68
2023/05/16 00:49:41;;;;;;;19.13;8.27;;;;;;;;;;5037971;28;20033;-68
2023/05/16 00:52:07;;;;;;;24.07;8.10;;;;;;;;;;5037316;28;20389;-68
2023/05/16 00:54:32;;;;;;;17.03;8.37;;;;;;;;;;5037496;28;20767;-68
2023/05/16 00:56:58;;;;;;;17.23;7.90;;;;;;;;;;5033097;28;20297;-68
2023/05/16 00:59:23;;;;;;;16.40;8.05;;;;;;;;;;5036855;28;20045;-69
2023/05/16 01:01:49;;;;;;;15.82;8.45;;;;;;;;;;5035530;28;20033;-69
2023/05/16 01:04:15;;;;;;;13.43;8.55;;;;;;;;;;5035928;28;20021;-67
2023/05/16 01:06:40;;;;;;;15.05;8.75;;;;;;;;;;5035949;28;20036;-69
2023/05/16 01:09:06;;;;;;;14.43;8.23;;;;;;;;;;5033347;28;20086;-68
2023/05/16 01:11:55;;;;;;;13.48;8.55;;;;;;;;;;5035708;28;20025;-68
2023/05/16 01:14:24;;;;;;;21.35;9.15;;;;;;;;;;5003453;28;20081;-67
2023/05/16 01:17:04;;;;;;;18.67;8.82;;;;;;;;;;5003548;28;20120;-67
2023/05/16 01:19:48;;;;;;;18.10;9.23;;;;;;;;;;5004280;28;20045;-65
2023/05/16 01:22:31;;;;;;;17.92;9.38;;;;;;;;;;5004034;28;20068;-68
2023/05/16 01:25:15;;;;;;;20.42;8.48;;;;;;;;;;5003078;28;20131;-67
2023/05/16 01:27:40;;;;;;;21.02;8.73;;;;;;;;;;4984982;28;20665;-67
2023/05/16 01:30:16;;;;;;;18.38;8.35;;;;;;;;;;5004976;28;20088;-68
2023/05/16 01:32:41;;;;;;;18.75;8.75;;;;;;;;;;4997552;28;20045;-68
2023/05/16 01:35:07;;;;;;;16.95;8.55;;;;;;;;;;5002267;28;20037;-67
2023/05/16 01:37:38;;;;;;;18.05;8.65;;;;;;;;;;5001598;28;20034;-67
2023/05/16 01:40:08;;;;;;;23.60;8.50;;;;;;;;;;5002957;28;20029;-67
2023/05/16 01:42:35;;;;;;;13.20;8.68;;;;;;;;;;5002067;28;20030;-67
2023/05/16 01:45:19;;;;;;;17.23;8.80;;;;;;;;;;5005529;28;20042;-67
2023/05/16 01:47:48;;;;;;;20.08;8.55;;;;;;;;;;5009531;28;20087;-67
2023/05/16 01:50:14;;;;;;;15.73;8.15;;;;;;;;;;5006269;28;20029;-67
2023/05/16 01:52:52;;;;;;;16.45;8.20;;;;;;;;;;5038143;28;20490;-68
2023/05/16 01:55:23;;;;;;;13.35;8.30;;;;;;;;;;5038245;28;20034;-67
2023/05/16 01:57:49;;;;;;;18.90;8.77;;;;;;;;;;5038630;28;20037;-67
2023/05/16 02:00:14;;;;;;;13.98;8.43;;;;;;;;;;5033727;28;20357;-68
2023/05/16 02:02:39;;;;;;;19.67;8.18;;;;;;;;;;5034911;28;20506;-67
2023/05/16 02:05:05;;;;;;;15.38;7.80;;;;;;;;;;5030560;28;20065;-67
2023/05/16 02:07:30;;;;;;;17.52;8.30;;;;;;;;;;5035913;28;20030;-68
2023/05/16 02:09:56;;;;;;;21.10;7.67;;;;;;;;;;5038068;28;20116;-68
2023/05/16 02:12:21;;;;;;;14.57;7.40;;;;;;;;;;5039294;28;20273;-67
2023/05/16 02:14:46;;;;;;;14.77;8.02;;;;;;;;;;5037998;28;20028;-68
2023/05/16 02:17:12;;;;;;;19.23;8.73;;;;;;;14.01;nan;99868.91;5038329;28;20068;-67
2023/05/16 02:19:37;;;;;;;17.58;7.72;;;;;;;;;;5040873;28;20116;-67
2023/05/16 02:22:02;;;;;;;18.70;7.75;;;;;;;;;;5037857;28;20033;-67
2023/05/16 02:24:27;;;;;;;17.63;8.70;;;;;;;;;;5040301;28;20025;-67
2023/05/16 02:26:53;;;;;;;24.10;9.20;;;;;;;;;;5038739;28;20029;-68
2023/05/16 02:29:18;;;;;;;22.67;8.60;;;;;;;;;;5039701;28;20280;-68
2023/05/16 02:31:43;;;;;;;17.33;8.73;;;;;;;;;;5039697;28;20282;-68
2023/05/16 02:34:09;;;;;;;22.38;8.35;;;;;;;;;;5039649;28;20048;-69
2023/05/16 02:36:35;;;;;;;20.23;8.82;;;;;;;;;;5036059;28;20437;-68
2023/05/16 02:39:00;;;;;;;19.15;8.30;;;;;;;;;;5041293;28;20028;-67
2023/05/16 02:41:26;;;;;;;19.05;7.70;;;;;;;;;;5038680;28;20090;-67
2023/05/16 02:43:51;;;;;;;22.15;8.35;;;;;;;;;;5037531;28;20029;-68
2023/05/16 02:46:31;;;;;;;14.50;7.83;;;;;;;;;;5037769;28;20033;-68
2023/05/16 02:48:56;;;;;;;20.40;7.82;;;;;;;;;;5036457;28;20274;-64
2023/05/16 02:51:23;;;;;;;14.87;7.93;;;;;;;;;;5039136;28;20024;-67
2023/05/16 02:53:48;;;;;;;17.15;8.07;;;;;;;;;;5037972;28;20823;-68
2023/05/16 02:56:14;;;;;;;17.95;8.07;;;;;;;;;;5037365;28;20033;-68
2023/05/16 02:58:39;;;;;;;15.97;8.00;;;;;;;;;;5038062;28;20064;-68
2023/05/16 03:01:05;;;;;;;12.77;7.85;;;;;;;;;;5038481;28;20290;-67
2023/05/16 03:03:30;;;;;;;15.75;8.13;;;;;;;;;;5038336;28;20038;-68
2023/05/16 03:05:55;;;;;;;21.10;9.05;;;;;;;;;;5035087;28;20442;-68
2023/05/16 03:08:21;;;;;;;12.53;7.80;;;;;;;;;;5038951;28;20061;-67
2023/05/16 03:10:46;;;;;;;14.97;7.00;;;;;;;;;;5039151;28;20051;-68
2023/05/16 03:13:11;;;;;;;16.07;7.70;;;;;;;;;;5036767;28;20087;-69
2023/05/16 03:15:36;;;;;;;14.27;6.87;;;;;;;;;;5037544;28;20314;-68
2023/05/16 03:18:01;;;;;;;17.87;7.23;;;;;;;;;;5038619;28;20033;-68
2023/05/16 03:20:27;;;;;;;17.03;7.33;;;;;;;;;;5036484;28;20037;-68
2023/05/16 03:22:52;;;;;;;16.97;7.50;;;;;;;;;;5033529;28;20839;-68
2023/05/16 03:25:17;;;;;;;15.23;7.97;;;;;;;;;;5034157;28;20033;-69
2023/05/16 03:27:42;;;;;;;16.30;6.80;;;;;;;;;;5036861;28;20040;-68
2023/05/16 03:30:08;;;;;;;22.37;9.43;;;;;;;;;;5038050;28;20061;-68
2023/05/16 03:32:33;;;;;;;22.55;10.23;;;;;;;;;;5037551;28;22062;-68
2023/05/16 03:34:58;;;;;;;28.57;12.40;;;;;;;;;;5035398;28;20025;-68
2023/05/16 03:37:24;;;;;;;26.77;10.27;;;;;;;;;;5040709;28;20282;-68
2023/05/16 03:39:50;;;;;;;16.98;7.82;;;;;;;;;;5038821;28;20067;-68
2023/05/16 03:42:17;;;;;;;16.20;8.25;;;;;;;;;;5037097;28;20064;-68
2023/05/16 03:44:42;;;;;;;16.40;8.32;;;;;;;;;;5037105;28;20067;-68
2023/05/16 03:47:07;;;;;;;21.03;8.60;;;;;;;;;;5038929;28;20061;-68
2023/05/16 03:49:32;;;;;;;14.55;8.10;;;;;;;;;;5034139;28;20308;-65
2023/05/16 03:51:58;;;;;;;17.60;8.13;;;;;;;;;;5036270;28;20547;-67
2023/05/16 03:54:23;;;;;;;18.70;8.17;;;;;;;;;;5036333;28;20625;-62
2023/05/16 03:56:48;;;;;;;16.00;7.40;;;;;;;;;;5037787;28;20510;-67
2023/05/16 03:59:14;;;;;;;14.77;7.35;;;;;;;;;;5032099;28;20301;-64
2023/05/16 04:01:39;;;;;;;14.38;8.05;;;;;;;;;;5039447;28;20076;-66
2023/05/16 04:04:04;;;;;;;15.93;8.83;;;;;;;;;;5043812;28;20037;-65
2023/05/16 04:06:30;;;;;;;14.90;7.80;;;;;;;;;;5046793;28;20482;-65
2023/05/16 04:08:56;;;;;;;13.27;6.63;;;;;;;;;;5044295;28;20036;-65
2023/05/16 04:11:21;;;;;;;16.00;7.15;;;;;;;;;;5040685;28;20034;-65
2023/05/16 04:13:46;;;;;;;13.93;7.20;;;;;;;;;;5036188;28;20021;-67
2023/05/16 04:16:11;;;;;;;11.57;6.63;;;;;;;;;;5040146;28;20040;-66
2023/05/16 04:18:37;;;;;;;12.82;7.07;;;;;;;;;;5038040;28;20726;-67
2023/05/16 04:21:02;;;;;;;12.65;6.93;;;;;;;;;;5034340;28;20033;-65
2023/05/16 04:23:27;;;;;;;11.77;6.35;;;;;;;;;;5035819;28;20037;-66
2023/05/16 04:25:54;;;;;;;15.83;6.83;;;;;;;;;;5037651;28;20468;-66
2023/05/16 04:28:19;;;;;;;12.98;6.75;;;;;;;;;;5035876;28;20293;-66
2023/05/16 04:30:45;;;;;;;15.18;7.20;;;;;;;;;;5036843;28;20025;-64
2023/05/16 04:33:10;;;;;;;10.32;6.72;;;;;;;;;;5034292;28;20500;-67
2023/05/16 04:35:36;;;;;;;13.95;6.47;;;;;;;;;;5034390;28;20074;-64
2023/05/16 04:38:01;;;;;;;11.68;6.85;;;;;;;;;;5037436;28;20086;-65
2023/05/16 04:40:27;;;;;;;17.43;8.03;;;;;;;;;;5039540;28;20116;-64
2023/05/16 04:42:53;;;;;;;17.58;7.50;;;;;;;;;;5037760;28;20721;-64
2023/05/16 04:45:18;;;;;;;15.07;6.53;;;;;;;;;;5035586;28;20029;-65
2023/05/16 04:47:43;;;;;;;13.40;6.57;;;;;;;;;;5038855;28;20437;-65
2023/05/16 04:50:09;;;;;;;16.57;6.97;;;;;;;;;;5035576;28;20440;-65
2023/05/16 04:52:34;;;;;;;14.77;6.90;;;;;;;;;;5037781;28;20288;-65
2023/05/16 04:55:00;;;;;;;18.27;7.07;;;;;;;;;;5038784;28;20488;-63
2023/05/16 04:57:26;;;;;;;15.65;7.00;;;;;;;;;;5034696;28;20132;-65
2023/05/16 04:59:51;;;;;;;12.57;7.25;;;;;;;;;;5035361;28;20071;-65
2023/05/16 05:02:18;;;;;;;13.25;7.10;;;;;;;;;;5037594;28;20053;-66
2023/05/16 05:04:43;;;;;;;15.17;7.33;;;;;;;;;;5035665;28;20032;-63
2023/05/16 05:07:09;;;;;;;12.80;7.63;;;;;;;;;;5038162;28;20023;-66
2023/05/16 05:09:34;;;;;;;15.95;7.20;;;;;;;;;;5034044;28;20037;-68
2023/05/16 05:11:59;;;;;;;13.03;6.87;;;;;;;;;;5038078;28;20032;-66
2023/05/16 05:14:25;;;;;;;17.93;7.67;;;;;;;;;;5037328;28;20684;-67
2023/05/16 05:16:50;;;;;;;20.42;8.18;;;;;;;;;;5034905;28;20033;-67
2023/05/16 05:19:15;;;;;;;17.07;7.97;;;;;;;;;;5036763;28;20033;-68
2023/05/16 05:21:41;;;;;;;21.80;8.45;;;;;;;;;;5038050;28;20660;-67
2023/05/16 05:24:06;;;;;;;17.83;8.35;;;;;;;;;;5037501;28;20029;-67
2023/05/16 05:26:31;;;;;;;14.68;7.80;;;;;;;;;;5034857;28;20033;-66
2023/05/16 05:28:56;;;;;;;15.13;8.00;;;;;;;;;;5034541;28;20033;-67
2023/05/16 05:31:22;;;;;;;17.67;7.57;;;;;;;;;;5038041;28;20801;-68
2023/05/16 05:33:48;;;;;;;24.77;8.43;;;;;;;;;;5022449;28;20539;-68
2023/05/16 05:36:13;;;;;;;19.33;7.88;;;;;;;;;;5031471;28;20285;-72
2023/05/16 05:38:38;;;;;;;13.87;7.70;;;;;;;;;;5035063;28;20147;-68
2023/05/16 05:41:04;;;;;;;16.23;7.85;;;;;;;;;;5032763;28;20034;-68
2023/05/16 05:43:29;;;;;;;16.23;7.95;;;;;;;;;;5035116;28;20029;-71
2023/05/16 05:45:55;;;;;;;17.50;8.05;;;;;;;;;;5039862;28;20028;-67
2023/05/16 05:48:20;;;;;;;17.70;7.10;;;;;;;;;;5039688;28;20114;-68
2023/05/16 05:50:45;;;;;;;15.65;7.35;;;;;;;;;;5039192;28;20134;-67
2023/05/16 05:53:11;;;;;;;11.60;7.15;;;;;;;;;;5035789;28;20510;-68
2023/05/16 05:55:36;;;;;;;15.53;7.07;;;;;;;;;;5038270;28;20025;-68
2023/05/16 05:58:01;;;;;;;14.80;7.73;;;;;;;;;;5038637;28;20382;-67
2023/05/16 06:00:28;;;;;;;20.65;7.72;;;;;;;;;;5036752;28;20292;-66
2023/05/16 06:02:53;;;;;;;16.88;7.30;;;;;;;;;;5041217;28;20032;-66
2023/05/16 06:05:18;;;;;;;18.90;7.40;;;;;;;;;;5035665;28;21020;-64
2023/05/16 06:07:44;;;;;;;13.73;7.70;;;;;;;;;;5036108;28;20029;-67
2023/05/16 06:10:09;;;;;;;14.40;7.57;;;;;;;;;;5037334;28;20284;-65
2023/05/16 06:12:34;;;;;;;17.87;8.10;;;;;;;;;;5036853;28;20278;-68
2023/05/16 06:14:59;;;;;;;12.80;6.97;;;;;;;;;;5039401;28;20294;-66
2023/05/16 06:17:25;;;;;;;15.13;7.63;;;;;;;;;;5042990;28;20025;-66
2023/05/16 06:19:50;;;;;;;13.80;7.53;;;;;;;;;;5037760;28;20289;-66
2023/05/16 06:22:15;;;;;;;14.73;7.13;;;;;;;;;;5039150;28;20060;-66
2023/05/16 06:24:40;;;;;;;15.73;7.43;;;;;;;;;;5040773;28;20033;-64
2023/05/16 06:27:06;;;;;;;13.77;7.43;;;;;;;;;;5043380;28;20086;-66
2023/05/16 06:29:31;;;;;;;14.23;7.37;;;;;;;;;;5042167;28;20025;-67
2023/05/16 06:31:56;;;;;;;17.52;7.82;;;;;;;;;;5036880;28;20052;-66
2023/05/16 06:34:31;;;;;;;14.53;6.70;;;;;;;;;;5038320;28;20115;-64
2023/05/16 06:36:56;;;;;;;16.08;6.68;;;;;;;;;;5039955;28;20274;-66
2023/05/16 06:39:21;;;;;;;14.55;6.75;;;;;;;;;;5039793;28;20162;-66
2023/05/16 06:41:47;;;;;;;11.27;6.30;;;;;;;;;;5035944;28;20040;-67
2023/05/16 06:44:12;;;;;;;13.57;6.33;;;;;;;;;;5038707;28;20035;-66
2023/05/16 06:46:37;;;;;;;11.97;6.20;;;;;;;;;;5036666;28;20089;-65
2023/05/16 06:49:03;;;;;;;13.10;5.97;;;;;;;;;;5037433;28;20535;-65
2023/05/16 06:51:28;;;;;;;13.75;6.28;;;;;;;;;;5038023;28;20032;-65
2023/05/16 06:53:54;;;;;;;15.82;5.65;;;;;;;;;;5037219;28;20076;-65
2023/05/16 06:56:20;;;;;;;13.80;5.80;;;;;;;;;;5037864;28;20103;-65
2023/05/16 06:58:45;;;;;;;12.07;5.53;;;;;;;;;;5038512;28;20290;-66
2023/05/16 07:01:10;;;;;;;11.18;5.07;;;;;;;;;;5039033;28;20033;-66
2023/05/16 07:03:36;;;;;;;11.03;5.50;;;;;;;;;;5038854;28;20069;-64
2023/05/16 07:06:01;;;;;;;10.50;5.20;;;;;;;;;;5039479;28;20297;-66
2023/05/16 07:08:26;;;;;;;10.50;5.10;;;;;;;;;;5039003;28;20024;-65
2023/05/16 07:10:51;;;;;;;10.97;5.00;;;;;;;;;;5037587;28;20032;-63
2023/05/16 07:13:17;;;;;;;11.13;5.05;;;;;;;;;;5034033;28;20287;-65
2023/05/16 07:15:42;;;;;;;10.70;5.67;;;;;;;;;;5036668;28;20029;-65
2023/05/16 07:18:07;;;;;;;12.35;4.90;;;;;;;;;;5037262;28;20279;-64
2023/05/16 07:20:33;;;;;;;13.40;5.63;;;;;;;;;;5037169;28;20476;-65
2023/05/16 07:22:58;;;;;;;13.30;5.47;;;;;;;;;;5036012;28;20760;-65
2023/05/16 07:25:24;;;;;;;11.35;5.50;;;;;;;;;;5042347;28;20033;-66
2023/05/16 07:27:49;;;;;;;12.23;5.07;;;;;;;;;;5036487;28;20080;-65
2023/05/16 07:30:14;;;;;;;11.70;5.77;;;;;;;;;;5039005;28;20036;-66
2023/05/16 07:32:40;;;;;;;15.07;5.55;;;;;;;;;;5035330;28;21084;-66
2023/05/16 07:35:05;;;;;;;11.07;5.40;;;;;;;;;;5038913;28;20040;-67
2023/05/16 07:37:31;;;;;;;10.13;5.75;;;;;;;;;;5038988;28;20034;-66
2023/05/16 07:39:56;;;;;;;11.23;5.70;;;;;;;;;;5040196;28;20174;-65
2023/05/16 07:42:21;;;;;;;10.57;5.50;;;;;;;;;;5039019;28;20136;-65
2023/05/16 07:44:46;;;;;;;12.63;5.53;;;;;;;;;;5042552;28;20281;-66
2023/05/16 07:47:12;;;;;;;18.23;5.57;;;;;;;;;;5037625;28;20064;-65
2023/05/16 07:49:37;;;;;;;13.98;6.47;;;;;;;;;;5039036;28;20037;-65
2023/05/16 07:52:02;;;;;;;12.10;5.50;;;;;;;;;;5036499;28;20416;-69
2023/05/16 07:54:27;;;;;;;11.57;6.72;;;;;;;;;;5036903;28;20274;-74
2023/05/16 07:56:53;;;;;;;18.37;6.13;;;;;;;;;;5037019;28;20032;-70
2023/05/16 07:59:18;;;;;;;13.02;6.22;;;;;;;;;;5039004;28;20294;-70
2023/05/16 08:01:44;;;;;;;15.13;7.07;;;;;;;;;;5036923;28;20032;-74
2023/05/16 08:04:09;;;;;;;19.87;6.80;;;;;;;;;;5036755;28;20659;-69
2023/05/16 08:06:34;;;;;;;17.53;7.00;;;;;;;;;;5037046;28;20273;-74
2023/05/16 08:08:59;;;;;;;15.40;6.83;;;;;;;;;;5036461;28;20095;-75
2023/05/16 08:11:25;;;;;;;20.52;6.88;;;;;;;;;;5034992;28;20297;-69
2023/05/16 08:13:50;;;;;;;21.15;6.90;;;;;;;;;;5029862;28;20028;-69
2023/05/16 08:16:16;;;;;;;17.20;7.03;;;;;;;;;;5035847;28;20064;-72
2023/05/16 08:18:41;;;;;;;13.48;6.72;;;;;;;;;;5036637;28;20278;-71
2023/05/16 08:21:07;;;;;;;17.17;6.73;;;;;;;;;;5040303;28;20029;-73
2023/05/16 08:23:33;;;;;;;14.20;6.30;;;;;;;16.14;nan;99631.72;5041813;28;20345;-67
2023/05/16 08:25:59;;;;;;;16.58;6.25;;;;;;;;;;5035487;28;20029;-69
2023/05/16 08:28:24;;;;;;;18.90;6.90;;;;;;;;;;5038043;28;20391;-69
2023/05/16 08:30:50;;;;;;;14.30;6.13;;;;;;;;;;5037118;28;20021;-69
2023/05/16 08:33:15;;;;;;;21.02;6.85;;;;;;;;;;5036604;28;20552;-70
2023/05/16 08:35:43;;;;;;;15.40;5.83;;;;;;;;;;5035877;28;20071;-73
2023/05/16 08:38:09;;;;;;;12.00;5.50;;;;;;;;;;5038201;28;20333;-70
2023/05/16 08:40:34;;;;;;;17.05;5.60;;;;;;;;;;5035613;28;20033;-73
2023/05/16 08:43:00;;;;;;;12.93;4.93;;;;;;;;;;5039395;28;20037;-69
2023/05/16 08:45:25;;;;;;;13.77;4.97;;;;;;;;;;5034050;28;20426;-70
2023/05/16 08:47:53;;;;;;;15.83;5.30;;;;;;;;;;5041046;28;20059;-70
2023/05/16 08:50:18;;;;;;;16.10;4.95;;;;;;;16.93;nan;99655.34;5045802;28;20266;-73
2023/05/16 08:52:46;;;;;;;14.35;5.28;;;;;;;;;;5043913;28;20108;-69
2023/05/16 08:55:12;;;;;;;11.95;4.88;;;;;;;;;;5039815;28;20086;-68
2023/05/16 08:57:38;;;;;;;12.90;4.35;;;;;;;;;;5038761;28;20053;-68
2023/05/16 09:00:09;;;;;;;17.60;4.70;;;;;;;;;;5034488;28;20402;-69
2023/05/16 09:02:34;;;;;;;13.93;5.22;;;;;;;;;;5038549;28;20026;-69
2023/05/16 09:05:00;;;;;;;9.93;4.68;;;;;;;;;;5034193;28;20033;-69
2023/05/16 09:07:25;;;;;;;13.95;5.53;;;;;;;;;;5039069;28;20503;-69
2023/05/16 09:09:51;;;;;;;16.40;5.33;;;;;;;;;;5034811;28;20036;-70
2023/05/16 09:12:16;;;;;;;13.70;5.15;;;;;;;17.10;nan;99809.16;5036415;28;20052;-69
2023/05/16 09:14:42;;;;;;;16.38;4.95;;;;;;;;;;5034686;28;20032;-68
2023/05/16 09:17:08;;;;;;;15.20;4.80;;;;;;;;;;5034889;28;20107;-70
2023/05/16 09:19:37;;;;;;;16.85;5.22;;;;;;;;;;5036564;28;20033;-68
2023/05/16 09:22:03;;;;;;;16.13;4.57;;;;;;;;;;5036370;28;20029;-68
2023/05/16 09:24:28;;;;;;;16.05;5.40;;;;;;;;;;5036061;28;20035;-68
2023/05/16 09:26:53;;;;;;;12.52;5.10;;;;;;;;;;5033349;28;20107;-68
2023/05/16 09:29:19;;;;;;;13.93;4.90;;;;;;;;;;5038802;28;20025;-69
2023/05/16 09:31:44;;;;;;;14.82;5.13;;;;;;;;;;5032985;28;20281;-70
2023/05/16 09:34:11;;;;;;;11.73;5.10;;;;;;;;;;5039153;28;20037;-70
2023/05/16 09:36:36;;;;;;;16.35;5.22;;;;;;;;;;5037301;28;20029;-74
2023/05/16 09:39:02;;;;;;;16.33;4.85;;;;;;;;;;5037796;28;20127;-68
2023/05/16 09:41:27;;;;;;;15.43;4.97;;;;;;;;;;5034295;28;20506;-68
2023/05/16 09:43:54;;;;;;;14.60;4.90;;;;;;;;;;5036340;28;20025;-68
2023/05/16 09:46:24;;;;;;;13.95;5.05;;;;;;;;;;5034310;28;20621;-67
2023/05/16 09:48:50;;;;;;;14.65;5.40;;;;;;;;;;5033249;28;20028;-68
2023/05/16 09:51:21;;;;;;;10.30;4.82;;;;;;;17.42;nan;99749.97;5032052;28;20025;-69
2023/05/16 09:53:46;;;;;;;15.45;5.85;;;;;;;;;;5033866;28;20077;-68
2023/05/16 09:56:12;;;;;;;22.13;4.65;;;;;;;;;;5033998;28;20056;-68
2023/05/16 09:58:40;;;;;;;17.52;5.10;;;;;;;17.47;nan;99707.31;5036107;28;20049;-69
2023/05/16 10:01:06;;;;;;;21.05;5.78;;;;;;;;;;5035414;28;20033;-75
2023/05/16 10:03:33;;;;;;;19.65;5.80;;;;;;;;;;5042130;28;20029;-73
2023/05/16 10:05:58;;;;;;;14.18;5.43;;;;;;;;;;5033483;28;20384;-73
2023/05/16 10:08:24;;;;;;;15.20;5.10;;;;;;;;;;5035970;28;20029;-73
2023/05/16 10:10:51;;;;;;;15.10;5.10;;;;;;;;;;5033082;28;20029;-69
2023/05/16 10:13:18;;;;;;;18.50;5.68;;;;;;;;;;5036866;28;21388;-69
2023/05/16 10:15:44;;;;;;;13.65;5.20;;;;;;;;;;5035626;28;20480;-69
2023/05/16 10:18:12;;;;;;;16.65;5.95;;;;;;;;;;5034019;28;20047;-68
2023/05/16 10:20:38;;;;;;;18.92;5.75;;;;;;;;;;5035641;28;20063;-69
2023/05/16 10:23:04;;;;;;;17.48;5.47;;;;;;;;;;5033859;28;20035;-68
2023/05/16 10:25:35;;;;;;;26.33;6.78;;;;;;;;;;5034986;28;20064;-69
2023/05/16 10:28:01;;;;;;;24.83;6.53;;;;;;;;;;5037125;28;20044;-68
2023/05/16 10:30:27;;;;;;;19.58;5.78;;;;;;;;;;5037041;28;20031;-69
2023/05/16 10:32:52;;;;;;;17.90;5.88;;;;;;;;;;5040648;28;20029;-68
2023/05/16 10:35:18;;;;;;;18.35;5.55;;;;;;;;;;5039770;28;20024;-70
2023/05/16 10:37:45;;;;;;;20.63;6.30;;;;;;;;;;5038694;28;20458;-69
2023/05/16 10:40:10;;;;;;;15.65;6.22;;;;;;;;;;5037478;28;20044;-69
2023/05/16 10:42:36;;;;;;;16.38;5.97;;;;;;;;;;5039339;28;20025;-68
2023/05/16 10:45:13;;;;;;;17.58;5.65;;;;;;;;;;5040974;28;20068;-67
2023/05/16 10:47:38;;;;;;;18.60;5.80;;;;;;;;;;5037190;28;20029;-68
2023/05/16 10:50:04;;;;;;;17.88;5.50;;;;;;;;;;5040286;28;20048;-68
2023/05/16 10:52:34;;;;;;;15.57;5.45;;;;;;;;;;5042202;28;20738;-69
2023/05/16 10:55:01;;;;;;;22.27;6.15;;;;;;;;;;5039257;28;20028;-67
2023/05/16 10:57:26;;;;;;;16.17;6.40;;;;;;;;;;5039280;28;20547;-68
2023/05/16 10:59:53;;;;;;;19.97;6.50;;;;;;;;;;5036993;28;20037;-68
2023/05/16 11:02:39;;;;;;;16.52;5.97;;;;;;;;;;5037395;28;20404;-68
2023/05/16 11:05:05;;;;;;;12.15;5.40;;;;;;;;;;5040601;28;20490;-68
2023/05/16 11:07:35;;;;;;;29.55;6.78;;;;;;;;;;5040511;28;20021;-68
2023/05/16 11:10:04;;;;;;;15.27;5.80;;;;;;;;;;5039764;28;20542;-67
2023/05/16 11:12:37;;;;;;;24.77;6.10;;;;;;;;;;5037711;28;20028;-68
2023/05/16 11:15:16;;;;;;;13.15;5.68;;;;;;;;;;5040625;28;20029;-68
2023/05/16 11:17:41;;;;;;;16.58;6.40;;;;;;;;;;5043759;28;20254;-68
2023/05/16 11:20:09;;;;;;;17.90;6.43;;;;;;;;;;5043492;28;20491;-68
2023/05/16 11:22:40;;;;;;;20.35;6.18;;;;;;;;;;5044521;28;20112;-67
2023/05/16 11:25:06;;;;;;;17.55;5.78;;;;;;;;;;5038352;28;20439;-67
2023/05/16 11:27:32;;;;;;;19.42;6.25;;;;;;;;;;5038961;28;20086;-67
2023/05/16 11:30:00;;;;;;;14.88;6.13;;;;;;;;;;5041913;28;20120;-68
2023/05/16 11:32:26;;;;;;;13.68;5.50;;;;;;;;;;5043567;28;20021;-68
2023/05/16 11:34:51;;;;;;;13.90;5.97;;;;;;;;;;5045071;28;20036;-68
2023/05/16 11:37:18;;;;;;;18.58;6.10;;;;;;;;;;5036564;28;20029;-67
2023/05/16 11:39:43;;;;;;;15.50;6.28;;;;;;;;;;5037628;28;20119;-68
2023/05/16 11:42:09;;;;;;;19.55;6.97;;;;;;;;;;5036022;28;20125;-67
2023/05/16 11:44:35;;;;;;;18.85;5.95;;;;;;;;;;5037843;28;20829;-68
2023/05/16 11:47:03;;;;;;;13.60;5.82;;;;;;;;;;5035889;28;20033;-67
2023/05/16 11:49:28;;;;;;;19.10;5.75;;;;;;;;;;5036726;28;20040;-69
2023/05/16 11:51:56;;;;;;;16.40;5.53;;;;;;;;;;5043754;28;20033;-69
2023/05/16 11:54:21;;;;;;;14.52;5.78;;;;;;;;;;5035135;28;20029;-70
2023/05/16 11:56:47;;;;;;;13.30;5.93;;;;;;;;;;5037696;28;20036;-70
2023/05/16 11:59:12;;;;;;;12.95;5.68;;;;;;;;;;5038802;28;20499;-68
2023/05/16 12:01:38;;;;;;;12.93;5.78;;;;;;;;;;5036301;28;20028;-69
2023/05/16 12:04:22;;;;;;;19.45;5.80;;;;;;;;;;5038318;28;20033;-69
2023/05/16 12:06:57;;;;;;;21.50;6.22;;;;;;;;;;5037640;28;20040;-70
2023/05/16 12:09:22;;;;;;;18.10;6.68;;;;;;;;;;5038337;28;20036;-68
2023/05/16 12:11:48;;;;;;;16.73;5.83;;;;;;;;;;5038074;28;20033;-69
2023/05/16 12:14:13;;;;;;;20.73;5.68;;;;;;;;;;5039001;28;20365;-68
2023/05/16 12:16:42;;;;;;;26.75;5.90;;;;;;;18.52;nan;99652.91;5035097;28;20028;-68
2023/05/16 12:19:08;;;;;;;;;;;;;;;18.45;nan;99590.09;5034757;28;20063;-68
2023/05/16 12:21:33;;;;;;;20.85;5.82;;;;;;;;;;5038421;28;19952;-68
2023/05/16 12:23:59;;;;;;;24.20;6.88;;;;;;;18.58;nan;99649.03;5038261;28;20048;-66
2023/05/16 12:26:33;;;;;;;19.90;6.03;;;;;;;;;;5038988;28;20483;-70
2023/05/16 12:29:02;;;;;;;16.35;5.07;;;;;;;;;;5044015;28;20061;-68
2023/05/16 12:31:29;;;;;;;18.10;6.47;;;;;;;18.77;nan;99628.44;5036466;28;20025;-69
2023/05/16 12:33:55;;;;;;;16.23;6.00;;;;;;;;;;5036422;28;20037;-68
2023/05/16 12:36:22;;;;;;;14.13;5.93;;;;;;;18.95;nan;99628.59;5035538;28;20507;-68
2023/05/16 12:38:48;;;;;;;14.77;5.63;;;;;;;19.01;nan;99628.19;5036742;28;20033;-69
2023/05/16 12:41:21;;;;;;;11.82;5.65;;;;;;;19.07;nan;99612.84;5035290;28;20510;-68
2023/05/16 12:43:50;;;;;;;14.18;5.45;;;;;;;19.15;nan;99606.00;5033890;28;20385;-69
2023/05/16 12:46:18;;;;;;;18.25;6.10;;;;;;;19.25;nan;99595.09;5034147;28;20025;-69
2023/05/16 12:48:46;;;;;;;20.50;5.63;;;;;;;;;;5033519;28;20029;-69
2023/05/16 12:51:16;;;;;;;13.55;5.43;;;;;;;19.29;nan;99668.16;5036968;28;20033;-69
2023/05/16 12:53:48;;;;;;;22.30;5.45;;;;;;;19.29;nan;99591.53;5034692;28;20033;-68
2023/05/16 12:56:14;;;;;;;16.20;5.32;;;;;;;19.29;nan;99596.84;5035922;28;20080;-69
2023/05/16 12:58:41;;;;;;;16.48;4.95;;;;;;;19.30;nan;99595.00;5035826;28;20091;-69
2023/05/16 13:01:07;;;;;;;17.63;5.65;;;;;;;;;;5034320;28;20028;-69
2023/05/16 13:03:34;;;;;;;16.98;5.40;;;;;;;19.30;nan;99601.13;5038513;28;20391;-68
2023/05/16 13:06:00;;;;;;;18.10;5.75;;;;;;;19.31;nan;99613.38;5034748;28;20187;-69
2023/05/16 13:08:26;;;;;;;17.23;6.10;;;;;;;19.29;nan;99593.41;5034978;28;20559;-69
2023/05/16 13:10:51;;;;;;;17.48;6.03;;;;;;;19.31;nan;99602.69;5035836;28;20021;-69
2023/05/16 13:13:17;;;;;;;16.35;6.00;;;;;;;19.27;nan;99641.75;5035890;28;20839;-68
2023/05/16 13:15:46;;;;;;;18.85;5.70;;;;;;;;;;5037019;28;20035;-66
2023/05/16 13:18:12;;;;;;;16.85;5.25;;;;;;;;;;5036135;28;20470;-69
2023/05/16 13:20:37;;;;;;;16.38;5.53;;;;;;;19.29;nan;99586.19;5035515;28;20033;-69
2023/05/16 13:23:04;;;;;;;15.95;5.47;;;;;;;19.33;nan;99581.03;5037200;28;20033;-68
2023/05/16 13:25:29;;;;;;;14.07;5.15;;;;;;;;;;5038274;28;20037;-69
2023/05/16 13:27:55;;;;;;;21.50;6.15;;;;;;;19.30;nan;99635.81;5037098;28;20083;-68
2023/05/16 13:30:20;;;;;;;19.85;7.40;;;;;;;;;;5035415;28;20057;-69
2023/05/16 13:32:45;;;;;;;12.63;5.10;;;;;;;19.40;nan;99573.41;5035550;28;20063;-69
2023/05/16 13:35:11;;;;;;;15.88;5.22;;;;;;;;;;5034669;28;20045;-69
2023/05/16 13:37:36;;;;;;;18.10;6.10;;;;;;;19.45;nan;99609.88;5036023;28;20037;-69
2023/05/16 13:40:03;;;;;;;19.75;6.15;;;;;;;19.53;nan;99561.06;5035785;28;20070;-68
2023/05/16 13:42:28;;;;;;;15.35;5.38;;;;;;;;;;5033888;28;20052;-68
2023/05/16 13:44:54;;;;;;;23.27;5.43;;;;;;;19.64;nan;99591.00;5036842;28;20491;-68
2023/05/16 13:47:19;;;;;;;21.65;5.13;;;;;;;19.70;nan;99565.75;5032850;28;20063;-69
2023/05/16 13:49:46;;;;;;;14.30;5.15;;;;;;;19.73;nan;99571.28;5036336;28;20032;-66
2023/05/16 13:52:11;;;;;;;16.90;5.35;;;;;;;19.74;nan;99542.69;5033601;28;20032;-66
2023/05/16 13:54:39;;;;;;;15.35;5.65;;;;;;;19.82;nan;99571.31;5036445;28;20390;-68
2023/05/16 13:57:04;;;;;;;13.07;5.43;;;;;;;19.84;nan;99601.19;5035971;28;20029;-68
2023/05/16 13:59:30;;;;;;;16.05;5.90;;;;;;;19.87;nan;99592.56;5034027;28;20048;-68
2023/05/16 14:01:55;;;;;;;18.48;5.10;;;;;;;19.92;nan;99525.63;5037744;28;20037;-67